createdAt,value
2023-03-06T00:00:47.256Z,72.06
2023-03-06T00:03:14.757Z,71.59
2023-03-06T00:05:42.565Z,71.97
2023-03-06T00:08:09.657Z,72.50
2023-03-06T00:10:36.867Z,72.29
2023-03-06T00:13:06.664Z,72.03
2023-03-06T00:15:34.130Z,71.07
2023-03-06T00:18:04.448Z,71.22
2023-03-06T00:20:31.631Z,70.69
2023-03-06T00:22:58.774Z,71.23
2023-03-06T00:25:26.525Z,71.52
2023-03-06T00:27:53.708Z,71.96
2023-03-06T00:30:23.986Z,71.64
2023-03-06T00:32:53.420Z,72.56
2023-03-06T00:35:21.328Z,71.60
2023-03-06T00:37:48.624Z,71.25
2023-03-06T00:40:18.855Z,71.61
2023-03-06T00:42:46.522Z,71.99
2023-03-06T00:45:14.562Z,71.20
2023-03-06T00:47:42.183Z,71.64
2023-03-06T00:50:12.520Z,71.90
2023-03-06T00:52:40.850Z,72.17
2023-03-06T00:55:08.751Z,72.47
2023-03-06T00:57:35.913Z,72.87
2023-03-06T01:00:04.799Z,72.92
2023-03-06T01:02:32.116Z,73.35
2023-03-06T01:04:59.433Z,73.66
2023-03-06T01:07:28.255Z,74.08
2023-03-06T01:09:57.278Z,73.54
2023-03-06T01:12:24.615Z,72.89
2023-03-06T01:14:51.810Z,72.39
2023-03-06T01:17:19.035Z,72.07
2023-03-06T01:19:46.246Z,71.95
2023-03-06T01:22:14.333Z,71.96
2023-03-06T01:24:41.380Z,72.10
2023-03-06T01:27:08.520Z,71.72
2023-03-06T01:29:35.870Z,72.13
2023-03-06T01:32:03.228Z,72.60
2023-03-06T01:34:30.401Z,72.91
2023-03-06T01:36:57.581Z,72.69
2023-03-06T01:39:25.254Z,72.03
2023-03-06T01:41:52.391Z,72.45
2023-03-06T01:44:19.638Z,72.36
2023-03-06T01:46:47.441Z,72.62
2023-03-06T01:49:20.610Z,73.20
2023-03-06T01:52:18.747Z,73.95
2023-03-06T01:54:51.709Z,73.08
2023-03-06T01:57:26.556Z,73.38
2023-03-06T02:00:02.439Z,73.81
2023-03-06T02:02:44.187Z,74.16
2023-03-06T02:05:12.360Z,73.71
2023-03-06T02:07:43.034Z,74.00
2023-03-06T02:10:14.748Z,73.32
2023-03-06T02:12:44.032Z,72.61
2023-03-06T02:15:14.520Z,72.96
2023-03-06T02:17:44.413Z,72.70
2023-03-06T02:20:25.425Z,72.78
2023-03-06T02:23:05.479Z,73.95
2023-03-06T02:25:46.331Z,74.25
2023-03-06T02:28:17.501Z,73.99
2023-03-06T02:30:46.305Z,73.28
2023-03-06T02:33:16.230Z,74.41
2023-03-06T02:35:57.999Z,75.13
2023-03-06T02:38:44.405Z,74.27
2023-03-06T02:41:12.133Z,74.25
2023-03-06T02:43:41.284Z,74.62
2023-03-06T02:46:08.541Z,74.62
2023-03-06T02:48:35.782Z,74.22
2023-03-06T02:51:03.135Z,73.80
2023-03-06T02:53:30.466Z,73.64
2023-03-06T02:55:59.919Z,74.02
2023-03-06T02:58:27.198Z,72.33
2023-03-06T03:00:54.354Z,72.12
2023-03-06T03:03:21.910Z,72.37
2023-03-06T03:05:48.986Z,73.08
2023-03-06T03:08:29.218Z,72.51
2023-03-06T03:11:01.054Z,72.62
2023-03-06T03:13:33.633Z,72.10
2023-03-06T03:16:07.045Z,73.87
2023-03-06T03:18:34.880Z,73.72
2023-03-06T03:21:02.552Z,74.11
2023-03-06T03:23:29.828Z,75.33
2023-03-06T03:26:10.946Z,74.89
2023-03-06T03:28:41.668Z,75.21
2023-03-06T03:31:11.588Z,74.38
2023-03-06T03:33:40.081Z,74.48
2023-03-06T03:36:09.188Z,75.63
2023-03-06T03:38:40.770Z,75.75
2023-03-06T03:41:07.905Z,74.86
2023-03-06T03:43:35.675Z,74.61
2023-03-06T03:46:02.843Z,74.66
2023-03-06T03:48:30.072Z,74.79
2023-03-06T03:51:08.423Z,73.19
2023-03-06T03:53:39.756Z,73.69
2023-03-06T03:56:09.479Z,74.25
2023-03-06T03:58:44.101Z,75.30
2023-03-06T04:01:11.320Z,75.49
2023-03-06T04:03:38.637Z,76.05
2023-03-06T04:06:08.248Z,76.13
2023-03-06T04:08:36.096Z,76.89
2023-03-06T04:11:03.637Z,76.23
2023-03-06T04:13:32.738Z,76.06
2023-03-06T04:16:00.246Z,75.92
2023-03-06T04:18:30.164Z,75.78
2023-03-06T04:21:01.453Z,76.18
2023-03-06T04:23:28.785Z,77.24
2023-03-06T04:25:56.017Z,77.46
2023-03-06T04:28:23.986Z,77.92
2023-03-06T04:30:52.100Z,76.95
2023-03-06T04:33:20.631Z,75.72
2023-03-06T04:35:48.522Z,76.46
2023-03-06T04:38:21.345Z,75.73
2023-03-06T04:40:50.038Z,75.74
2023-03-06T04:43:17.350Z,75.80
2023-03-06T04:45:44.936Z,75.52
2023-03-06T04:48:18.150Z,75.99
2023-03-06T04:50:45.574Z,76.33
2023-03-06T04:53:14.754Z,76.96
2023-03-06T04:55:41.888Z,76.80
2023-03-06T04:58:10.302Z,76.72
2023-03-06T05:00:37.515Z,76.55
2023-03-06T05:03:04.837Z,76.81
2023-03-06T05:05:32.040Z,77.70
2023-03-06T05:07:59.171Z,77.61
2023-03-06T05:10:26.407Z,77.51
2023-03-06T05:12:53.646Z,78.24
2023-03-06T05:15:21.192Z,78.92
2023-03-06T05:17:48.391Z,77.96
2023-03-06T05:20:16.482Z,77.83
2023-03-06T05:22:44.135Z,76.65
2023-03-06T05:25:11.979Z,76.68
2023-03-06T05:27:39.594Z,77.07
2023-03-06T05:30:08.126Z,76.42
2023-03-06T05:32:35.893Z,76.75
2023-03-06T05:35:04.375Z,76.81
2023-03-06T05:37:31.800Z,76.43
2023-03-06T05:39:59.299Z,76.66
2023-03-06T05:42:28.681Z,76.33
2023-03-06T05:44:55.949Z,76.11
2023-03-06T05:47:23.160Z,75.44
2023-03-06T05:49:50.611Z,76.94
2023-03-06T05:52:18.067Z,77.00
2023-03-06T05:54:45.234Z,77.85
2023-03-06T05:57:12.386Z,77.01
2023-03-06T05:59:39.453Z,77.08
2023-03-06T06:02:06.704Z,77.09
2023-03-06T06:04:33.839Z,78.53
2023-03-06T06:07:01.863Z,77.50
2023-03-06T06:09:29.790Z,75.11
2023-03-06T06:12:00.147Z,75.20
2023-03-06T06:14:28.072Z,75.42
2023-03-06T06:16:55.388Z,74.13
2023-03-06T06:19:23.081Z,73.43
2023-03-06T06:21:54.175Z,73.09
2023-03-06T06:24:25.152Z,72.81
2023-03-06T06:26:54.469Z,72.75
2023-03-06T06:29:22.222Z,72.99
2023-03-06T06:31:50.167Z,73.24
2023-03-06T06:34:18.256Z,73.73
2023-03-06T06:36:45.406Z,73.43
2023-03-06T06:39:16.802Z,72.92
2023-03-06T06:42:00.069Z,72.74
2023-03-06T06:44:31.914Z,72.79
2023-03-06T06:47:22.004Z,73.06
2023-03-06T06:49:51.361Z,73.29
2023-03-06T06:52:19.051Z,73.38
2023-03-06T06:54:46.205Z,73.78
2023-03-06T06:57:13.568Z,74.02
2023-03-06T06:59:40.750Z,73.92
2023-03-06T07:02:08.192Z,73.94
2023-03-06T07:04:35.391Z,74.20
2023-03-06T07:07:02.609Z,74.25
2023-03-06T07:09:31.145Z,73.96
2023-03-06T07:11:58.463Z,74.27
2023-03-06T07:14:25.708Z,74.09
2023-03-06T07:16:52.819Z,74.39
2023-03-06T07:19:20.039Z,74.87
2023-03-06T07:21:47.409Z,73.94
2023-03-06T07:24:14.586Z,73.73
2023-03-06T07:26:47.038Z,74.18
2023-03-06T07:29:14.809Z,73.90
2023-03-06T07:31:41.971Z,70.66
2023-03-06T07:34:13.818Z,70.72
2023-03-06T07:36:41.340Z,68.88
2023-03-06T07:39:09.064Z,68.23
2023-03-06T07:41:36.495Z,67.78
2023-03-06T07:44:03.825Z,67.44
2023-03-06T07:46:31.091Z,67.47
2023-03-06T07:48:58.578Z,67.00
2023-03-06T07:51:26.022Z,67.38
2023-03-06T07:53:53.421Z,67.45
2023-03-06T07:56:20.535Z,66.02
2023-03-06T07:58:48.228Z,66.12
2023-03-06T08:01:18.576Z,67.14
2023-03-06T08:03:45.949Z,65.82
2023-03-06T08:06:22.237Z,64.02
2023-03-06T08:08:51.008Z,62.52
2023-03-06T08:11:21.640Z,61.76
2023-03-06T08:13:49.351Z,61.67
2023-03-06T08:16:17.801Z,62.51
2023-03-06T08:18:46.320Z,61.18
2023-03-06T08:21:17.176Z,61.47
2023-03-06T08:23:44.913Z,61.88
2023-03-06T08:26:15.342Z,62.00
2023-03-06T08:28:42.679Z,62.73
2023-03-06T08:31:12.918Z,62.06
2023-03-06T08:33:41.421Z,60.76
2023-03-06T08:36:08.844Z,59.69
2023-03-06T08:38:36.079Z,60.48
2023-03-06T08:41:03.395Z,60.14
2023-03-06T08:43:30.882Z,60.78
2023-03-06T08:45:59.461Z,59.81
2023-03-06T08:48:26.843Z,61.51
2023-03-06T08:50:54.210Z,60.09
2023-03-06T08:53:30.455Z,59.55
2023-03-06T08:56:04.154Z,59.94
2023-03-06T08:58:31.464Z,61.74
2023-03-06T09:00:59.357Z,60.20
2023-03-06T09:03:27.439Z,58.16
2023-03-06T09:05:54.597Z,57.26
2023-03-06T09:08:21.742Z,58.18
2023-03-06T09:10:48.987Z,57.99
2023-03-06T09:13:16.254Z,58.79
2023-03-06T09:15:43.320Z,58.40
2023-03-06T09:18:10.570Z,56.81
2023-03-06T09:20:37.767Z,58.54
2023-03-06T09:23:05.020Z,58.34
2023-03-06T09:25:32.245Z,58.65
2023-03-06T09:28:10.805Z,57.62
2023-03-06T09:30:41.363Z,57.70
2023-03-06T09:33:08.573Z,56.47
2023-03-06T09:35:35.864Z,55.66
2023-03-06T09:38:03.011Z,55.44
2023-03-06T09:40:59.101Z,55.52
2023-03-06T09:43:31.749Z,55.97
2023-03-06T09:45:59.757Z,55.38
2023-03-06T09:48:45.776Z,55.53
2023-03-06T09:51:21.688Z,56.35
2023-03-06T09:54:12.194Z,54.65
2023-03-06T09:56:43.330Z,53.28
2023-03-06T09:59:26.742Z,52.72
2023-03-06T10:01:56.726Z,55.08
2023-03-06T10:04:37.175Z,52.45
2023-03-06T10:07:14.306Z,53.58
2023-03-06T10:10:02.445Z,52.80
2023-03-06T10:12:35.746Z,53.41
2023-03-06T10:15:11.656Z,51.39
2023-03-06T10:17:41.482Z,52.40
2023-03-06T10:20:20.584Z,53.11
2023-03-06T10:23:12.341Z,51.58
2023-03-06T10:26:01.388Z,52.25
2023-03-06T10:28:42.791Z,52.17
2023-03-06T10:31:13.234Z,51.72
2023-03-06T10:33:55.598Z,51.29
2023-03-06T10:36:28.850Z,51.07
2023-03-06T10:38:58.537Z,50.51
2023-03-06T10:41:32.033Z,51.75
2023-03-06T10:44:05.152Z,49.25
2023-03-06T10:46:44.665Z,49.49
2023-03-06T10:49:28.716Z,52.28
2023-03-06T10:52:07.055Z,51.79
2023-03-06T10:54:37.998Z,50.78
2023-03-06T10:57:24.140Z,51.17
2023-03-06T10:59:55.816Z,51.03
2023-03-06T11:02:28.518Z,50.98
2023-03-06T11:04:57.648Z,51.00
2023-03-06T11:07:27.337Z,52.24
2023-03-06T11:09:58.108Z,50.44
2023-03-06T11:12:51.154Z,52.88
2023-03-06T11:15:21.318Z,52.16
2023-03-06T11:17:50.350Z,50.33
2023-03-06T11:20:49.951Z,51.77
2023-03-06T11:23:38.836Z,50.49
2023-03-06T11:26:17.876Z,50.97
2023-03-06T11:29:03.390Z,51.26
2023-03-06T11:32:10.413Z,51.70
2023-03-06T11:34:50.688Z,51.82
2023-03-06T11:37:37.793Z,53.28
2023-03-06T11:40:23.646Z,51.32
2023-03-06T11:43:03.220Z,49.68
2023-03-06T11:45:51.457Z,50.58
2023-03-06T11:48:25.334Z,50.27
2023-03-06T11:51:12.648Z,51.18
2023-03-06T11:53:40.634Z,52.45
2023-03-06T11:56:36.462Z,50.83
2023-03-06T11:59:22.802Z,51.67
2023-03-06T12:02:03.451Z,50.73
2023-03-06T12:04:54.578Z,50.83
2023-03-06T12:07:41.474Z,52.22
2023-03-06T12:10:24.723Z,51.18
2023-03-06T12:13:39.795Z,50.68
2023-03-06T12:16:25.926Z,52.52
2023-03-06T12:19:01.963Z,52.74
2023-03-06T12:21:56.254Z,51.55
2023-03-06T12:24:29.070Z,51.80
2023-03-06T12:27:27.615Z,52.87
2023-03-06T12:30:10.027Z,51.82
2023-03-06T12:32:58.138Z,51.28
2023-03-06T12:35:40.202Z,51.32
2023-03-06T12:38:56.607Z,50.39
2023-03-06T12:41:32.658Z,50.11
2023-03-06T12:44:11.744Z,50.78
2023-03-06T12:46:55.187Z,50.37
2023-03-06T12:49:32.441Z,50.35
2023-03-06T12:52:01.525Z,49.66
2023-03-06T12:54:31.750Z,50.14
2023-03-06T12:57:01.066Z,51.22
2023-03-06T12:59:55.064Z,48.74
2023-03-06T13:02:40.422Z,49.16
2023-03-06T13:05:38.103Z,48.31
2023-03-06T13:08:32.699Z,51.48
2023-03-06T13:11:16.530Z,49.79
2023-03-06T13:13:46.725Z,48.30
2023-03-06T13:16:33.224Z,47.33
2023-03-06T13:19:19.982Z,47.15
2023-03-06T13:21:55.857Z,47.66
2023-03-06T13:24:34.820Z,47.72
2023-03-06T13:27:06.164Z,46.76
2023-03-06T13:29:36.063Z,47.86
2023-03-06T13:32:03.319Z,49.93
2023-03-06T13:34:39.359Z,48.84
2023-03-06T13:37:23.347Z,47.58
2023-03-06T13:39:57.117Z,48.57
2023-03-06T13:42:28.688Z,47.35
2023-03-06T13:44:57.980Z,47.99
2023-03-06T13:47:31.301Z,48.14
2023-03-06T13:50:00.212Z,47.79
2023-03-06T13:52:54.288Z,48.81
2023-03-06T13:55:47.348Z,48.56
2023-03-06T13:58:30.766Z,50.20
2023-03-06T14:01:19.535Z,51.48
2023-03-06T14:04:02.623Z,52.36
2023-03-06T14:06:35.625Z,50.11
2023-03-06T14:09:07.115Z,50.77
2023-03-06T14:11:35.858Z,52.08
2023-03-06T14:14:03.476Z,50.43
2023-03-06T14:16:49.223Z,50.90
2023-03-06T14:19:19.005Z,52.50
2023-03-06T14:21:51.374Z,50.75
2023-03-06T14:24:36.090Z,52.68
2023-03-06T14:27:03.310Z,51.47
2023-03-06T14:29:33.845Z,52.27
2023-03-06T14:32:02.775Z,51.96
2023-03-06T14:34:33.275Z,53.45
2023-03-06T14:37:05.908Z,51.88
2023-03-06T14:39:44.290Z,53.09
2023-03-06T14:42:19.392Z,52.80
2023-03-06T14:45:00.663Z,52.19
2023-03-06T14:47:29.121Z,53.34
2023-03-06T14:50:26.103Z,52.36
2023-03-06T14:52:57.999Z,52.60
2023-03-06T14:55:27.855Z,53.99
2023-03-06T14:58:20.392Z,56.26
2023-03-06T15:00:55.054Z,52.86
2023-03-06T15:03:28.171Z,53.48
2023-03-06T15:05:56.332Z,54.10
2023-03-06T15:08:29.201Z,53.72
2023-03-06T15:11:07.610Z,51.86
2023-03-06T15:13:35.429Z,52.99
2023-03-06T15:16:05.865Z,51.72
2023-03-06T15:18:36.474Z,53.27
2023-03-06T15:21:20.120Z,52.00
2023-03-06T15:23:50.173Z,52.24
2023-03-06T15:26:29.441Z,52.95
2023-03-06T15:29:23.613Z,52.28
2023-03-06T15:31:51.005Z,52.75
2023-03-06T15:34:27.870Z,52.14
2023-03-06T15:36:58.072Z,53.11
2023-03-06T15:39:33.321Z,53.79
2023-03-06T15:42:09.366Z,55.59
2023-03-06T15:44:36.508Z,53.98
2023-03-06T15:47:08.712Z,56.10
2023-03-06T15:49:38.778Z,56.53
2023-03-06T15:52:07.204Z,54.99
2023-03-06T15:54:35.050Z,55.00
2023-03-06T15:57:08.757Z,55.01
2023-03-06T15:59:43.254Z,56.18
2023-03-06T16:02:19.696Z,58.12
2023-03-06T16:04:47.769Z,55.36
2023-03-06T16:07:16.068Z,55.33
2023-03-06T16:09:43.623Z,57.21
2023-03-06T16:12:21.782Z,57.48
2023-03-06T16:14:49.465Z,57.86
2023-03-06T16:17:17.498Z,56.97
2023-03-06T16:19:44.856Z,57.61
2023-03-06T16:22:12.462Z,59.20
2023-03-06T16:24:39.568Z,57.56
2023-03-06T16:27:07.238Z,56.32
2023-03-06T16:29:35.328Z,57.40
2023-03-06T16:32:02.533Z,56.45
2023-03-06T16:34:29.743Z,56.35
2023-03-06T16:36:56.878Z,59.64
2023-03-06T16:39:24.615Z,58.33
2023-03-06T16:41:52.503Z,59.02
2023-03-06T16:44:20.450Z,57.01
2023-03-06T16:46:50.366Z,59.38
2023-03-06T16:49:25.501Z,58.33
2023-03-06T16:51:53.863Z,58.33
2023-03-06T16:54:23.581Z,59.22
2023-03-06T16:56:50.698Z,60.59
2023-03-06T16:59:17.827Z,61.15
2023-03-06T17:01:45.097Z,59.97
2023-03-06T17:04:12.415Z,60.70
2023-03-06T17:06:42.127Z,60.99
2023-03-06T17:09:11.475Z,62.37
2023-03-06T17:11:43.619Z,61.69
2023-03-06T17:14:10.759Z,62.15
2023-03-06T17:16:40.609Z,62.93
2023-03-06T17:19:08.817Z,63.21
2023-03-06T17:21:38.661Z,63.29
2023-03-06T17:24:06.637Z,63.52
2023-03-06T17:26:34.527Z,64.18
2023-03-06T17:29:01.669Z,63.67
2023-03-06T17:31:29.750Z,63.57
2023-03-06T17:34:00.783Z,64.38
2023-03-06T17:36:30.532Z,63.73
2023-03-06T17:39:00.436Z,64.04
2023-03-06T17:41:27.968Z,64.20
2023-03-06T17:44:02.124Z,63.97
2023-03-06T17:46:29.424Z,64.46
2023-03-06T17:48:56.911Z,65.14
2023-03-06T17:51:24.142Z,65.22
2023-03-06T17:53:52.455Z,65.08
2023-03-06T17:56:19.830Z,65.24
2023-03-06T17:58:47.076Z,65.29
2023-03-06T18:01:30.569Z,65.15
2023-03-06T18:03:57.875Z,65.25
2023-03-06T18:06:30.462Z,65.03
2023-03-06T18:08:57.529Z,66.35
2023-03-06T18:11:24.953Z,65.60
2023-03-06T18:13:52.306Z,66.15
2023-03-06T18:16:23.298Z,66.32
2023-03-06T18:18:55.945Z,66.95
2023-03-06T18:21:24.698Z,65.94
2023-03-06T18:23:52.254Z,66.59
2023-03-06T18:26:25.727Z,66.23
2023-03-06T18:29:02.722Z,66.46
2023-03-06T18:31:36.384Z,67.36
2023-03-06T18:34:15.050Z,67.23
2023-03-06T18:36:43.975Z,68.53
2023-03-06T18:39:13.397Z,68.00
2023-03-06T18:41:41.657Z,69.03
2023-03-06T18:44:08.865Z,68.40
2023-03-06T18:46:38.346Z,67.89
2023-03-06T18:49:06.026Z,68.99
2023-03-06T18:51:33.740Z,69.29
2023-03-06T18:54:02.634Z,68.87
2023-03-06T18:56:30.126Z,68.85
2023-03-06T18:59:00.812Z,68.04
2023-03-06T19:01:31.017Z,68.33
2023-03-06T19:04:02.932Z,68.59
2023-03-06T19:06:30.564Z,68.77
2023-03-06T19:08:58.946Z,68.97
2023-03-06T19:11:27.215Z,69.20
2023-03-06T19:13:54.546Z,69.18
2023-03-06T19:16:25.905Z,70.10
2023-03-06T19:18:55.996Z,69.86
2023-03-06T19:21:26.882Z,70.07
2023-03-06T19:23:54.585Z,70.00
2023-03-06T19:26:22.001Z,70.19
2023-03-06T19:28:49.837Z,70.28
2023-03-06T19:31:20.772Z,70.67
2023-03-06T19:33:49.719Z,71.23
2023-03-06T19:36:18.413Z,71.12
2023-03-06T19:38:46.416Z,71.16
2023-03-06T19:41:14.004Z,71.42
2023-03-06T19:43:42.564Z,70.91
2023-03-06T19:46:14.408Z,71.51
2023-03-06T19:48:42.264Z,70.76
2023-03-06T19:51:10.487Z,71.02
2023-03-06T19:53:39.181Z,70.28
2023-03-06T19:56:08.370Z,70.61
2023-03-06T19:58:35.705Z,70.29
2023-03-06T20:01:08.090Z,70.86
2023-03-06T20:03:35.148Z,70.44
2023-03-06T20:06:03.192Z,70.34
2023-03-06T20:08:30.470Z,70.19
2023-03-06T20:10:57.674Z,70.62
2023-03-06T20:13:24.857Z,70.49
2023-03-06T20:15:52.015Z,70.90
2023-03-06T20:18:19.309Z,70.34
2023-03-06T20:20:57.167Z,71.21
2023-03-06T20:23:24.477Z,70.58
2023-03-06T20:25:51.877Z,70.99
2023-03-06T20:28:19.085Z,71.06
2023-03-06T20:30:46.303Z,71.48
2023-03-06T20:33:15.650Z,71.59
2023-03-06T20:35:43.249Z,72.15
2023-03-06T20:38:11.542Z,72.26
2023-03-06T20:40:39.760Z,72.31
2023-03-06T20:43:07.062Z,72.44
2023-03-06T20:45:34.894Z,71.82
2023-03-06T20:48:02.937Z,72.39
2023-03-06T20:50:30.117Z,72.78
2023-03-06T20:52:59.134Z,72.28
2023-03-06T20:55:26.331Z,71.53
2023-03-06T20:57:53.558Z,71.75
2023-03-06T21:00:21.256Z,71.43
2023-03-06T21:02:48.457Z,72.26
2023-03-06T21:05:15.684Z,71.80
2023-03-06T21:07:42.928Z,71.78
2023-03-06T21:10:10.444Z,70.55
2023-03-06T21:12:37.555Z,70.62
2023-03-06T21:15:05.099Z,69.51
2023-03-06T21:17:32.318Z,70.57
2023-03-06T21:19:59.480Z,69.29
2023-03-06T21:22:26.770Z,70.49
2023-03-06T21:24:53.958Z,70.35
2023-03-06T21:27:21.062Z,69.07
2023-03-06T21:29:48.119Z,67.89
2023-03-06T21:32:15.294Z,68.69
2023-03-06T21:34:42.364Z,67.14
2023-03-06T21:37:09.532Z,68.22
2023-03-06T21:39:36.663Z,68.20
2023-03-06T21:42:03.831Z,67.51
2023-03-06T21:44:30.866Z,68.30
2023-03-06T21:46:58.013Z,66.34
2023-03-06T21:49:26.435Z,67.33
2023-03-06T21:51:53.839Z,67.63
2023-03-06T21:54:21.442Z,66.17
2023-03-06T21:56:48.733Z,66.08
2023-03-06T21:59:15.926Z,66.90
2023-03-06T22:01:43.017Z,66.71
2023-03-06T22:04:10.266Z,66.02
2023-03-06T22:06:38.600Z,66.80
2023-03-06T22:09:05.710Z,66.46
2023-03-06T22:11:37.185Z,67.09
2023-03-06T22:14:05.441Z,67.29
2023-03-06T22:16:33.246Z,68.09
2023-03-06T22:19:00.464Z,66.23
2023-03-06T22:21:27.697Z,67.73
2023-03-06T22:23:57.794Z,66.08
2023-03-06T22:26:26.317Z,67.03
2023-03-06T22:28:53.721Z,68.95
2023-03-06T22:31:26.265Z,65.75
2023-03-06T22:33:54.847Z,67.76
2023-03-06T22:36:23.198Z,66.84
2023-03-06T22:38:55.654Z,65.99
2023-03-06T22:41:23.007Z,66.24
2023-03-06T22:43:50.290Z,65.89
2023-03-06T22:46:18.207Z,66.94
2023-03-06T22:48:45.757Z,66.42
2023-03-06T22:51:18.681Z,66.40
2023-03-06T22:53:46.689Z,66.28
2023-03-06T22:56:16.925Z,67.04
2023-03-06T22:58:45.220Z,67.26
2023-03-06T23:01:18.892Z,68.15
2023-03-06T23:03:51.545Z,67.83
2023-03-06T23:06:36.515Z,68.09
2023-03-06T23:09:13.629Z,68.49
2023-03-06T23:11:59.300Z,68.36
2023-03-06T23:14:50.012Z,68.44
2023-03-06T23:17:35.721Z,68.39
2023-03-06T23:20:22.236Z,69.77
2023-03-06T23:23:07.899Z,68.52
2023-03-06T23:25:41.077Z,70.28
2023-03-06T23:28:08.369Z,69.12
2023-03-06T23:30:35.512Z,69.77
2023-03-06T23:33:02.571Z,70.11
2023-03-06T23:35:29.689Z,71.25
2023-03-06T23:37:57.670Z,70.32
2023-03-06T23:40:25.126Z,70.21
2023-03-06T23:42:52.278Z,71.52
2023-03-06T23:45:19.564Z,71.28
2023-03-06T23:47:46.730Z,69.63
2023-03-06T23:50:14.460Z,69.47
2023-03-06T23:52:41.580Z,70.64
2023-03-06T23:55:09.409Z,70.16
2023-03-06T23:57:36.450Z,70.63
